sensor_id;sensor_type;location;lat;lon;timestamp;temperature;humidity
21662;DHT22;10992;48.170;8.596;2024-03-22T00:01:52;6.70;99.90
21662;DHT22;10992;48.170;8.596;2024-03-22T00:04:18;6.50;99.90
21662;DHT22;10992;48.170;8.596;2024-03-22T00:06:46;6.50;99.90
21662;DHT22;10992;48.170;8.596;2024-03-22T00:09:12;6.70;99.90
21662;DHT22;10992;48.170;8.596;2024-03-22T00:11:42;6.70;99.90
21662;DHT22;10992;48.170;8.596;2024-03-22T00:14:09;6.50;99.90
21662;DHT22;10992;48.170;8.596;2024-03-22T00:16:35;6.50;99.90
21662;DHT22;10992;48.170;8.596;2024-03-22T00:19:01;6.40;99.90
21662;DHT22;10992;48.170;8.596;2024-03-22T00:21:27;6.40;99.90
21662;DHT22;10992;48.170;8.596;2024-03-22T00:23:54;6.30;99.90
21662;DHT22;10992;48.170;8.596;2024-03-22T00:26:20;6.30;99.90
21662;DHT22;10992;48.170;8.596;2024-03-22T00:28:45;6.20;99.90
21662;DHT22;10992;48.170;8.596;2024-03-22T00:31:11;6.30;99.90
21662;DHT22;10992;48.170;8.596;2024-03-22T00:33:37;6.20;99.90
21662;DHT22;10992;48.170;8.596;2024-03-22T00:36:03;6.20;99.90
21662;DHT22;10992;48.170;8.596;2024-03-22T00:38:30;6.20;99.90
21662;DHT22;10992;48.170;8.596;2024-03-22T00:40:56;6.20;99.90
21662;DHT22;10992;48.170;8.596;2024-03-22T00:43:22;6.20;99.90
21662;DHT22;10992;48.170;8.596;2024-03-22T00:45:48;6.30;99.90
21662;DHT22;10992;48.170;8.596;2024-03-22T00:48:14;6.20;99.90
21662;DHT22;10992;48.170;8.596;2024-03-22T00:50:39;6.00;99.90
21662;DHT22;10992;48.170;8.596;2024-03-22T00:53:05;6.10;99.90
21662;DHT22;10992;48.170;8.596;2024-03-22T00:55:33;6.20;99.90
21662;DHT22;10992;48.170;8.596;2024-03-22T00:57:59;6.20;99.90
21662;DHT22;10992;48.170;8.596;2024-03-22T01:00:25;6.30;99.90
21662;DHT22;10992;48.170;8.596;2024-03-22T01:02:51;6.20;99.90
21662;DHT22;10992;48.170;8.596;2024-03-22T01:05:17;6.30;99.90
21662;DHT22;10992;48.170;8.596;2024-03-22T01:07:43;6.30;99.90
21662;DHT22;10992;48.170;8.596;2024-03-22T01:10:11;6.40;99.90
21662;DHT22;10992;48.170;8.596;2024-03-22T01:12:37;6.40;99.90
21662;DHT22;10992;48.170;8.596;2024-03-22T01:15:05;6.30;99.90
21662;DHT22;10992;48.170;8.596;2024-03-22T01:17:32;6.30;99.90
21662;DHT22;10992;48.170;8.596;2024-03-22T01:19:58;6.40;99.90
21662;DHT22;10992;48.170;8.596;2024-03-22T01:22:24;6.30;99.90
21662;DHT22;10992;48.170;8.596;2024-03-22T01:24:50;6.30;99.90
21662;DHT22;10992;48.170;8.596;2024-03-22T01:27:16;6.30;99.90
21662;DHT22;10992;48.170;8.596;2024-03-22T01:29:42;6.20;99.90
21662;DHT22;10992;48.170;8.596;2024-03-22T01:32:08;6.20;99.90
21662;DHT22;10992;48.170;8.596;2024-03-22T01:34:34;6.20;99.90
21662;DHT22;10992;48.170;8.596;2024-03-22T01:37:00;6.10;99.90
21662;DHT22;10992;48.170;8.596;2024-03-22T01:39:26;6.10;99.90
21662;DHT22;10992;48.170;8.596;2024-03-22T01:41:52;6.00;99.90
21662;DHT22;10992;48.170;8.596;2024-03-22T01:44:18;6.10;99.90
21662;DHT22;10992;48.170;8.596;2024-03-22T01:46:45;6.00;99.90
21662;DHT22;10992;48.170;8.596;2024-03-22T01:49:14;6.00;99.90
21662;DHT22;10992;48.170;8.596;2024-03-22T01:51:42;6.00;99.90
21662;DHT22;10992;48.170;8.596;2024-03-22T01:54:11;6.00;99.90
21662;DHT22;10992;48.170;8.596;2024-03-22T01:56:38;6.10;99.90
21662;DHT22;10992;48.170;8.596;2024-03-22T01:59:05;6.20;99.90
21662;DHT22;10992;48.170;8.596;2024-03-22T02:01:32;6.10;99.90
21662;DHT22;10992;48.170;8.596;2024-03-22T02:03:58;6.20;99.90
21662;DHT22;10992;48.170;8.596;2024-03-22T02:06:23;6.10;99.90
21662;DHT22;10992;48.170;8.596;2024-03-22T02:08:49;6.20;99.90
21662;DHT22;10992;48.170;8.596;2024-03-22T02:11:15;6.10;99.90
21662;DHT22;10992;48.170;8.596;2024-03-22T02:13:41;6.10;99.90
21662;DHT22;10992;48.170;8.596;2024-03-22T02:16:09;6.00;99.90
21662;DHT22;10992;48.170;8.596;2024-03-22T02:18:35;5.80;99.90
21662;DHT22;10992;48.170;8.596;2024-03-22T02:21:01;5.50;99.90
21662;DHT22;10992;48.170;8.596;2024-03-22T02:23:32;5.40;99.90
21662;DHT22;10992;48.170;8.596;2024-03-22T02:25:58;5.40;99.90
21662;DHT22;10992;48.170;8.596;2024-03-22T02:28:24;5.40;99.90
21662;DHT22;10992;48.170;8.596;2024-03-22T02:30:50;5.40;99.90
21662;DHT22;10992;48.170;8.596;2024-03-22T02:33:16;5.40;99.90
21662;DHT22;10992;48.170;8.596;2024-03-22T02:35:42;5.30;99.90
21662;DHT22;10992;48.170;8.596;2024-03-22T02:38:08;5.30;99.90
21662;DHT22;10992;48.170;8.596;2024-03-22T02:40:34;5.30;99.90
21662;DHT22;10992;48.170;8.596;2024-03-22T02:43:00;5.30;99.90
21662;DHT22;10992;48.170;8.596;2024-03-22T02:45:26;5.40;99.90
21662;DHT22;10992;48.170;8.596;2024-03-22T02:47:51;5.40;99.90
21662;DHT22;10992;48.170;8.596;2024-03-22T02:50:17;5.30;99.90
21662;DHT22;10992;48.170;8.596;2024-03-22T02:52:44;5.10;99.90
21662;DHT22;10992;48.170;8.596;2024-03-22T02:55:09;5.10;99.90
21662;DHT22;10992;48.170;8.596;2024-03-22T02:57:35;5.20;99.90
21662;DHT22;10992;48.170;8.596;2024-03-22T03:00:01;5.20;99.90
21662;DHT22;10992;48.170;8.596;2024-03-22T03:02:27;5.30;99.90
21662;DHT22;10992;48.170;8.596;2024-03-22T03:04:53;5.30;99.90
21662;DHT22;10992;48.170;8.596;2024-03-22T03:07:19;5.30;99.90
21662;DHT22;10992;48.170;8.596;2024-03-22T03:09:45;5.30;99.90
21662;DHT22;10992;48.170;8.596;2024-03-22T03:12:11;5.30;99.90
21662;DHT22;10992;48.170;8.596;2024-03-22T03:14:37;5.30;99.90
21662;DHT22;10992;48.170;8.596;2024-03-22T03:17:03;5.30;99.90
21662;DHT22;10992;48.170;8.596;2024-03-22T03:19:29;5.30;99.90
21662;DHT22;10992;48.170;8.596;2024-03-22T03:21:55;5.30;99.90
21662;DHT22;10992;48.170;8.596;2024-03-22T03:24:21;5.30;99.90
21662;DHT22;10992;48.170;8.596;2024-03-22T03:26:46;5.40;99.90
21662;DHT22;10992;48.170;8.596;2024-03-22T03:29:13;5.50;99.90
21662;DHT22;10992;48.170;8.596;2024-03-22T03:31:39;5.70;99.90
21662;DHT22;10992;48.170;8.596;2024-03-22T03:34:04;5.80;99.90
21662;DHT22;10992;48.170;8.596;2024-03-22T03:36:30;5.80;99.90
21662;DHT22;10992;48.170;8.596;2024-03-22T03:38:57;5.90;99.90
21662;DHT22;10992;48.170;8.596;2024-03-22T03:41:23;6.00;99.90
21662;DHT22;10992;48.170;8.596;2024-03-22T03:43:48;6.00;99.90
21662;DHT22;10992;48.170;8.596;2024-03-22T03:46:14;6.00;99.90
21662;DHT22;10992;48.170;8.596;2024-03-22T03:48:40;5.90;99.90
21662;DHT22;10992;48.170;8.596;2024-03-22T03:51:06;6.00;99.90
21662;DHT22;10992;48.170;8.596;2024-03-22T03:53:32;5.90;99.90
21662;DHT22;10992;48.170;8.596;2024-03-22T03:55:58;5.90;99.90
21662;DHT22;10992;48.170;8.596;2024-03-22T03:58:24;5.90;99.90
21662;DHT22;10992;48.170;8.596;2024-03-22T04:00:50;5.90;99.90
21662;DHT22;10992;48.170;8.596;2024-03-22T04:03:16;5.90;99.90
21662;DHT22;10992;48.170;8.596;2024-03-22T04:05:42;5.90;99.90
21662;DHT22;10992;48.170;8.596;2024-03-22T04:08:08;5.90;99.90
21662;DHT22;10992;48.170;8.596;2024-03-22T04:10:34;5.90;99.90
21662;DHT22;10992;48.170;8.596;2024-03-22T04:12:59;6.00;99.90
21662;DHT22;10992;48.170;8.596;2024-03-22T04:15:25;6.00;99.90
21662;DHT22;10992;48.170;8.596;2024-03-22T04:17:51;6.00;99.90
21662;DHT22;10992;48.170;8.596;2024-03-22T04:20:17;6.10;99.90
21662;DHT22;10992;48.170;8.596;2024-03-22T04:22:43;6.20;99.90
21662;DHT22;10992;48.170;8.596;2024-03-22T04:25:09;6.20;99.90
21662;DHT22;10992;48.170;8.596;2024-03-22T04:27:36;6.10;99.90
21662;DHT22;10992;48.170;8.596;2024-03-22T04:30:02;6.10;99.90
21662;DHT22;10992;48.170;8.596;2024-03-22T04:32:28;6.10;99.90
21662;DHT22;10992;48.170;8.596;2024-03-22T04:34:54;6.10;99.90
21662;DHT22;10992;48.170;8.596;2024-03-22T04:37:21;6.10;99.90
21662;DHT22;10992;48.170;8.596;2024-03-22T04:39:47;6.10;99.90
21662;DHT22;10992;48.170;8.596;2024-03-22T04:42:13;6.20;99.90
21662;DHT22;10992;48.170;8.596;2024-03-22T04:44:38;6.10;99.90
21662;DHT22;10992;48.170;8.596;2024-03-22T04:47:04;6.10;99.90
21662;DHT22;10992;48.170;8.596;2024-03-22T04:49:30;6.00;99.90
21662;DHT22;10992;48.170;8.596;2024-03-22T04:51:57;6.10;99.90
21662;DHT22;10992;48.170;8.596;2024-03-22T04:54:22;6.00;99.90
21662;DHT22;10992;48.170;8.596;2024-03-22T04:56:50;6.00;99.90
21662;DHT22;10992;48.170;8.596;2024-03-22T04:59:16;6.00;99.90
21662;DHT22;10992;48.170;8.596;2024-03-22T05:01:43;6.00;99.90
21662;DHT22;10992;48.170;8.596;2024-03-22T05:04:10;6.10;99.90
21662;DHT22;10992;48.170;8.596;2024-03-22T05:06:36;6.10;99.90
21662;DHT22;10992;48.170;8.596;2024-03-22T05:09:01;6.10;99.90
21662;DHT22;10992;48.170;8.596;2024-03-22T05:11:29;6.20;99.90
21662;DHT22;10992;48.170;8.596;2024-03-22T05:13:57;6.10;99.90
21662;DHT22;10992;48.170;8.596;2024-03-22T05:16:23;6.20;99.90
21662;DHT22;10992;48.170;8.596;2024-03-22T05:18:49;6.20;99.90
21662;DHT22;10992;48.170;8.596;2024-03-22T05:21:15;6.20;99.90
21662;DHT22;10992;48.170;8.596;2024-03-22T05:23:41;6.20;99.90
21662;DHT22;10992;48.170;8.596;2024-03-22T05:26:07;6.10;99.90
21662;DHT22;10992;48.170;8.596;2024-03-22T05:28:32;6.10;99.90
21662;DHT22;10992;48.170;8.596;2024-03-22T05:30:59;6.00;99.90
21662;DHT22;10992;48.170;8.596;2024-03-22T05:33:25;6.00;99.90
21662;DHT22;10992;48.170;8.596;2024-03-22T05:35:50;5.90;99.90
21662;DHT22;10992;48.170;8.596;2024-03-22T05:38:16;5.80;99.90
21662;DHT22;10992;48.170;8.596;2024-03-22T05:40:42;5.80;99.90
21662;DHT22;10992;48.170;8.596;2024-03-22T05:43:08;5.80;99.90
21662;DHT22;10992;48.170;8.596;2024-03-22T05:45:34;5.70;99.90
21662;DHT22;10992;48.170;8.596;2024-03-22T05:48:00;5.70;99.90
21662;DHT22;10992;48.170;8.596;2024-03-22T05:50:26;5.80;99.90
21662;DHT22;10992;48.170;8.596;2024-03-22T05:52:52;5.90;99.90
21662;DHT22;10992;48.170;8.596;2024-03-22T05:55:18;6.00;99.90
21662;DHT22;10992;48.170;8.596;2024-03-22T05:57:43;6.10;99.90
21662;DHT22;10992;48.170;8.596;2024-03-22T06:00:09;6.10;99.90
21662;DHT22;10992;48.170;8.596;2024-03-22T06:02:37;6.20;99.90
21662;DHT22;10992;48.170;8.596;2024-03-22T06:05:03;6.30;99.90
21662;DHT22;10992;48.170;8.596;2024-03-22T06:07:28;6.40;99.90
21662;DHT22;10992;48.170;8.596;2024-03-22T06:09:56;6.60;99.90
21662;DHT22;10992;48.170;8.596;2024-03-22T06:12:22;7.10;99.90
21662;DHT22;10992;48.170;8.596;2024-03-22T06:14:48;8.00;99.90
21662;DHT22;10992;48.170;8.596;2024-03-22T06:17:14;9.20;99.90
21662;DHT22;10992;48.170;8.596;2024-03-22T06:19:41;10.10;99.90
21662;DHT22;10992;48.170;8.596;2024-03-22T06:22:07;10.70;99.90
21662;DHT22;10992;48.170;8.596;2024-03-22T06:24:32;11.20;99.90
21662;DHT22;10992;48.170;8.596;2024-03-22T06:26:58;11.70;99.90
21662;DHT22;10992;48.170;8.596;2024-03-22T06:29:24;11.60;99.90
21662;DHT22;10992;48.170;8.596;2024-03-22T06:31:50;11.50;99.90
21662;DHT22;10992;48.170;8.596;2024-03-22T06:34:18;11.60;99.90
21662;DHT22;10992;48.170;8.596;2024-03-22T06:36:44;11.80;99.90
21662;DHT22;10992;48.170;8.596;2024-03-22T06:39:09;11.70;99.90
21662;DHT22;10992;48.170;8.596;2024-03-22T06:41:36;12.20;99.90
21662;DHT22;10992;48.170;8.596;2024-03-22T06:44:02;12.70;99.90
21662;DHT22;10992;48.170;8.596;2024-03-22T06:46:28;13.00;99.90
21662;DHT22;10992;48.170;8.596;2024-03-22T06:48:54;13.30;99.90
21662;DHT22;10992;48.170;8.596;2024-03-22T06:51:20;13.20;99.90
21662;DHT22;10992;48.170;8.596;2024-03-22T06:53:46;13.70;99.90
21662;DHT22;10992;48.170;8.596;2024-03-22T06:56:13;13.60;99.90
21662;DHT22;10992;48.170;8.596;2024-03-22T06:58:39;13.80;99.90
21662;DHT22;10992;48.170;8.596;2024-03-22T07:01:05;14.20;99.90
21662;DHT22;10992;48.170;8.596;2024-03-22T07:03:31;14.40;99.90
21662;DHT22;10992;48.170;8.596;2024-03-22T07:05:57;14.90;99.90
21662;DHT22;10992;48.170;8.596;2024-03-22T07:08:24;14.40;99.90
21662;DHT22;10992;48.170;8.596;2024-03-22T07:10:50;14.80;99.90
21662;DHT22;10992;48.170;8.596;2024-03-22T07:13:18;14.80;99.90
21662;DHT22;10992;48.170;8.596;2024-03-22T07:15:45;14.40;99.90
21662;DHT22;10992;48.170;8.596;2024-03-22T07:18:12;14.20;99.90
21662;DHT22;10992;48.170;8.596;2024-03-22T07:20:37;14.00;99.90
21662;DHT22;10992;48.170;8.596;2024-03-22T07:23:03;13.90;99.90
21662;DHT22;10992;48.170;8.596;2024-03-22T07:25:30;14.40;99.90
21662;DHT22;10992;48.170;8.596;2024-03-22T07:27:56;14.60;99.90
21662;DHT22;10992;48.170;8.596;2024-03-22T07:30:22;15.20;99.90
21662;DHT22;10992;48.170;8.596;2024-03-22T07:32:48;15.20;99.90
21662;DHT22;10992;48.170;8.596;2024-03-22T07:35:14;16.30;99.90
21662;DHT22;10992;48.170;8.596;2024-03-22T07:37:40;16.80;99.90
21662;DHT22;10992;48.170;8.596;2024-03-22T07:40:07;16.80;99.90
21662;DHT22;10992;48.170;8.596;2024-03-22T07:42:33;16.90;99.90
21662;DHT22;10992;48.170;8.596;2024-03-22T07:44:58;17.70;99.90
21662;DHT22;10992;48.170;8.596;2024-03-22T07:47:24;17.50;99.90
21662;DHT22;10992;48.170;8.596;2024-03-22T07:49:51;17.50;99.90
21662;DHT22;10992;48.170;8.596;2024-03-22T07:52:17;18.20;99.90
21662;DHT22;10992;48.170;8.596;2024-03-22T07:54:43;19.00;99.90
21662;DHT22;10992;48.170;8.596;2024-03-22T07:57:08;19.00;99.90
21662;DHT22;10992;48.170;8.596;2024-03-22T07:59:36;19.90;99.90
21662;DHT22;10992;48.170;8.596;2024-03-22T08:02:02;20.30;99.90
21662;DHT22;10992;48.170;8.596;2024-03-22T08:04:29;19.70;99.90
21662;DHT22;10992;48.170;8.596;2024-03-22T08:06:56;19.20;99.90
21662;DHT22;10992;48.170;8.596;2024-03-22T08:09:21;17.80;99.90
21662;DHT22;10992;48.170;8.596;2024-03-22T08:11:48;17.30;99.90
21662;DHT22;10992;48.170;8.596;2024-03-22T08:14:14;16.60;99.90
21662;DHT22;10992;48.170;8.596;2024-03-22T08:16:41;16.50;99.90
21662;DHT22;10992;48.170;8.596;2024-03-22T08:19:08;15.80;99.90
21662;DHT22;10992;48.170;8.596;2024-03-22T08:21:34;15.60;99.90
21662;DHT22;10992;48.170;8.596;2024-03-22T08:24:00;15.50;99.90
21662;DHT22;10992;48.170;8.596;2024-03-22T08:26:26;16.00;99.90
21662;DHT22;10992;48.170;8.596;2024-03-22T08:28:52;16.70;99.90
21662;DHT22;10992;48.170;8.596;2024-03-22T08:31:18;17.70;99.90
21662;DHT22;10992;48.170;8.596;2024-03-22T08:33:47;17.70;99.90
21662;DHT22;10992;48.170;8.596;2024-03-22T08:36:13;18.80;99.90
21662;DHT22;10992;48.170;8.596;2024-03-22T08:38:39;19.70;99.90
21662;DHT22;10992;48.170;8.596;2024-03-22T08:41:04;21.10;99.90
21662;DHT22;10992;48.170;8.596;2024-03-22T08:43:30;22.30;99.90
21662;DHT22;10992;48.170;8.596;2024-03-22T08:45:56;22.80;99.90
21662;DHT22;10992;48.170;8.596;2024-03-22T08:48:23;23.00;99.90
21662;DHT22;10992;48.170;8.596;2024-03-22T08:50:49;23.40;99.90
21662;DHT22;10992;48.170;8.596;2024-03-22T08:53:16;24.00;99.90
21662;DHT22;10992;48.170;8.596;2024-03-22T08:55:46;22.60;99.90
21662;DHT22;10992;48.170;8.596;2024-03-22T08:58:13;23.10;99.90
21662;DHT22;10992;48.170;8.596;2024-03-22T09:00:41;24.20;99.90
21662;DHT22;10992;48.170;8.596;2024-03-22T09:03:08;23.70;99.90
21662;DHT22;10992;48.170;8.596;2024-03-22T09:05:34;23.00;99.90
21662;DHT22;10992;48.170;8.596;2024-03-22T09:08:00;22.00;99.90
21662;DHT22;10992;48.170;8.596;2024-03-22T09:10:26;20.80;99.90
21662;DHT22;10992;48.170;8.596;2024-03-22T09:12:52;20.80;99.90
21662;DHT22;10992;48.170;8.596;2024-03-22T09:15:18;20.80;99.90
21662;DHT22;10992;48.170;8.596;2024-03-22T09:17:44;20.90;99.90
21662;DHT22;10992;48.170;8.596;2024-03-22T09:20:11;21.20;99.90
21662;DHT22;10992;48.170;8.596;2024-03-22T09:22:36;21.40;99.90
21662;DHT22;10992;48.170;8.596;2024-03-22T09:25:04;22.10;99.90
21662;DHT22;10992;48.170;8.596;2024-03-22T09:27:30;23.00;99.90
21662;DHT22;10992;48.170;8.596;2024-03-22T09:29:57;22.50;99.90
21662;DHT22;10992;48.170;8.596;2024-03-22T09:32:23;22.20;99.90
21662;DHT22;10992;48.170;8.596;2024-03-22T09:34:49;22.60;99.90
21662;DHT22;10992;48.170;8.596;2024-03-22T09:37:16;22.60;99.90
21662;DHT22;10992;48.170;8.596;2024-03-22T09:39:41;23.60;99.90
21662;DHT22;10992;48.170;8.596;2024-03-22T09:42:08;22.20;99.90
21662;DHT22;10992;48.170;8.596;2024-03-22T09:44:37;22.30;99.90
21662;DHT22;10992;48.170;8.596;2024-03-22T09:47:06;22.80;99.90
21662;DHT22;10992;48.170;8.596;2024-03-22T09:49:33;22.40;99.90
21662;DHT22;10992;48.170;8.596;2024-03-22T09:51:59;21.90;99.90
21662;DHT22;10992;48.170;8.596;2024-03-22T09:54:25;21.70;99.90
21662;DHT22;10992;48.170;8.596;2024-03-22T09:56:51;22.00;99.90
21662;DHT22;10992;48.170;8.596;2024-03-22T09:59:17;22.40;99.90
21662;DHT22;10992;48.170;8.596;2024-03-22T10:01:44;22.00;99.90
21662;DHT22;10992;48.170;8.596;2024-03-22T10:04:11;21.90;99.90
21662;DHT22;10992;48.170;8.596;2024-03-22T10:06:37;21.80;99.90
21662;DHT22;10992;48.170;8.596;2024-03-22T10:09:05;22.00;99.90
21662;DHT22;10992;48.170;8.596;2024-03-22T10:11:31;22.60;99.90
21662;DHT22;10992;48.170;8.596;2024-03-22T10:13:57;22.80;99.90
21662;DHT22;10992;48.170;8.596;2024-03-22T10:16:22;22.90;99.90
21662;DHT22;10992;48.170;8.596;2024-03-22T10:18:48;21.40;99.90
21662;DHT22;10992;48.170;8.596;2024-03-22T10:21:18;21.60;99.90
21662;DHT22;10992;48.170;8.596;2024-03-22T10:23:44;21.50;99.90
21662;DHT22;10992;48.170;8.596;2024-03-22T10:26:13;21.00;99.90
21662;DHT22;10992;48.170;8.596;2024-03-22T10:28:45;21.40;99.90
21662;DHT22;10992;48.170;8.596;2024-03-22T10:31:14;20.50;99.90
21662;DHT22;10992;48.170;8.596;2024-03-22T10:33:41;20.30;99.90
21662;DHT22;10992;48.170;8.596;2024-03-22T10:36:07;21.70;99.90
21662;DHT22;10992;48.170;8.596;2024-03-22T10:38:38;20.20;99.90
21662;DHT22;10992;48.170;8.596;2024-03-22T10:41:05;21.10;99.90
21662;DHT22;10992;48.170;8.596;2024-03-22T10:43:31;21.10;99.90
21662;DHT22;10992;48.170;8.596;2024-03-22T10:46:01;21.50;99.90
21662;DHT22;10992;48.170;8.596;2024-03-22T10:48:30;22.10;99.90
21662;DHT22;10992;48.170;8.596;2024-03-22T10:51:00;22.60;99.90
21662;DHT22;10992;48.170;8.596;2024-03-22T10:53:29;23.10;99.90
21662;DHT22;10992;48.170;8.596;2024-03-22T10:55:57;23.10;99.90
21662;DHT22;10992;48.170;8.596;2024-03-22T10:58:25;22.20;99.90
21662;DHT22;10992;48.170;8.596;2024-03-22T11:00:52;22.00;99.90
21662;DHT22;10992;48.170;8.596;2024-03-22T11:03:24;21.70;99.90
21662;DHT22;10992;48.170;8.596;2024-03-22T11:05:54;21.50;99.90
21662;DHT22;10992;48.170;8.596;2024-03-22T11:08:25;21.30;99.90
21662;DHT22;10992;48.170;8.596;2024-03-22T11:10:52;21.60;99.90
21662;DHT22;10992;48.170;8.596;2024-03-22T11:13:21;22.00;99.90
21662;DHT22;10992;48.170;8.596;2024-03-22T11:15:49;21.70;99.90
21662;DHT22;10992;48.170;8.596;2024-03-22T11:18:15;21.70;99.90
21662;DHT22;10992;48.170;8.596;2024-03-22T11:20:42;21.90;99.90
21662;DHT22;10992;48.170;8.596;2024-03-22T11:23:09;22.60;99.90
21662;DHT22;10992;48.170;8.596;2024-03-22T11:25:35;22.90;99.90
21662;DHT22;10992;48.170;8.596;2024-03-22T11:28:02;22.70;99.90
21662;DHT22;10992;48.170;8.596;2024-03-22T11:30:29;22.70;99.90
21662;DHT22;10992;48.170;8.596;2024-03-22T11:32:55;22.60;99.90
21662;DHT22;10992;48.170;8.596;2024-03-22T11:35:21;22.70;99.90
21662;DHT22;10992;48.170;8.596;2024-03-22T11:37:48;21.70;99.90
21662;DHT22;10992;48.170;8.596;2024-03-22T11:40:16;22.60;99.90
21662;DHT22;10992;48.170;8.596;2024-03-22T11:42:45;23.30;99.90
21662;DHT22;10992;48.170;8.596;2024-03-22T11:45:14;23.00;99.90
21662;DHT22;10992;48.170;8.596;2024-03-22T11:47:40;22.80;99.90
21662;DHT22;10992;48.170;8.596;2024-03-22T11:50:06;22.20;99.90
21662;DHT22;10992;48.170;8.596;2024-03-22T11:52:32;22.10;99.90
21662;DHT22;10992;48.170;8.596;2024-03-22T11:54:58;21.40;99.90
21662;DHT22;10992;48.170;8.596;2024-03-22T11:57:24;21.10;99.90
21662;DHT22;10992;48.170;8.596;2024-03-22T11:59:52;20.80;99.90
21662;DHT22;10992;48.170;8.596;2024-03-22T12:02:18;21.20;99.90
21662;DHT22;10992;48.170;8.596;2024-03-22T12:04:47;21.20;99.90
21662;DHT22;10992;48.170;8.596;2024-03-22T12:07:13;21.50;99.80
21662;DHT22;10992;48.170;8.596;2024-03-22T12:09:41;21.20;98.70
21662;DHT22;10992;48.170;8.596;2024-03-22T12:12:09;21.00;99.10
21662;DHT22;10992;48.170;8.596;2024-03-22T12:14:35;20.90;99.20
21662;DHT22;10992;48.170;8.596;2024-03-22T12:17:05;20.10;99.40
21662;DHT22;10992;48.170;8.596;2024-03-22T12:19:31;20.40;99.90
21662;DHT22;10992;48.170;8.596;2024-03-22T12:21:57;20.30;99.90
21662;DHT22;10992;48.170;8.596;2024-03-22T12:24:23;19.60;99.90
21662;DHT22;10992;48.170;8.596;2024-03-22T12:26:50;19.70;99.90
21662;DHT22;10992;48.170;8.596;2024-03-22T12:29:16;20.90;99.90
21662;DHT22;10992;48.170;8.596;2024-03-22T12:31:43;21.50;99.40
21662;DHT22;10992;48.170;8.596;2024-03-22T12:34:09;22.30;99.00
21662;DHT22;10992;48.170;8.596;2024-03-22T12:36:35;21.90;96.50
21662;DHT22;10992;48.170;8.596;2024-03-22T12:39:01;21.30;98.60
21662;DHT22;10992;48.170;8.596;2024-03-22T12:41:27;21.50;98.00
21662;DHT22;10992;48.170;8.596;2024-03-22T12:43:55;22.30;98.10
21662;DHT22;10992;48.170;8.596;2024-03-22T12:46:21;22.80;96.40
21662;DHT22;10992;48.170;8.596;2024-03-22T12:48:47;23.20;97.00
21662;DHT22;10992;48.170;8.596;2024-03-22T12:51:14;22.80;96.30
21662;DHT22;10992;48.170;8.596;2024-03-22T12:53:40;22.90;95.90
21662;DHT22;10992;48.170;8.596;2024-03-22T12:56:06;23.10;98.60
21662;DHT22;10992;48.170;8.596;2024-03-22T12:58:32;23.60;97.90
21662;DHT22;10992;48.170;8.596;2024-03-22T13:00:58;22.70;96.60
21662;DHT22;10992;48.170;8.596;2024-03-22T13:03:27;22.80;97.10
21662;DHT22;10992;48.170;8.596;2024-03-22T13:05:53;22.30;97.30
21662;DHT22;10992;48.170;8.596;2024-03-22T13:08:19;22.40;98.80
21662;DHT22;10992;48.170;8.596;2024-03-22T13:10:46;22.00;96.10
21662;DHT22;10992;48.170;8.596;2024-03-22T13:13:13;22.00;98.40
21662;DHT22;10992;48.170;8.596;2024-03-22T13:15:42;22.00;97.10
21662;DHT22;10992;48.170;8.596;2024-03-22T13:18:09;22.30;98.00
21662;DHT22;10992;48.170;8.596;2024-03-22T13:20:35;22.50;97.10
21662;DHT22;10992;48.170;8.596;2024-03-22T13:23:02;22.60;95.40
21662;DHT22;10992;48.170;8.596;2024-03-22T13:25:28;21.20;96.60
21662;DHT22;10992;48.170;8.596;2024-03-22T13:27:54;22.10;98.10
21662;DHT22;10992;48.170;8.596;2024-03-22T13:30:20;22.40;96.10
21662;DHT22;10992;48.170;8.596;2024-03-22T13:32:46;22.70;96.60
21662;DHT22;10992;48.170;8.596;2024-03-22T13:35:12;22.30;98.10
21662;DHT22;10992;48.170;8.596;2024-03-22T13:37:38;22.40;94.90
21662;DHT22;10992;48.170;8.596;2024-03-22T13:40:04;22.00;95.70
21662;DHT22;10992;48.170;8.596;2024-03-22T13:42:30;22.00;97.20
21662;DHT22;10992;48.170;8.596;2024-03-22T13:44:56;22.00;96.30
21662;DHT22;10992;48.170;8.596;2024-03-22T13:47:25;22.50;96.90
21662;DHT22;10992;48.170;8.596;2024-03-22T13:49:52;22.30;96.70
21662;DHT22;10992;48.170;8.596;2024-03-22T13:52:18;22.40;94.30
21662;DHT22;10992;48.170;8.596;2024-03-22T13:54:44;22.60;94.70
21662;DHT22;10992;48.170;8.596;2024-03-22T13:57:09;22.60;94.40
21662;DHT22;10992;48.170;8.596;2024-03-22T13:59:35;22.70;94.50
21662;DHT22;10992;48.170;8.596;2024-03-22T14:02:03;22.70;94.70
21662;DHT22;10992;48.170;8.596;2024-03-22T14:04:29;22.80;94.80
21662;DHT22;10992;48.170;8.596;2024-03-22T14:06:54;22.60;93.50
21662;DHT22;10992;48.170;8.596;2024-03-22T14:09:20;21.90;94.70
21662;DHT22;10992;48.170;8.596;2024-03-22T14:11:46;22.30;93.10
21662;DHT22;10992;48.170;8.596;2024-03-22T14:14:14;22.30;93.30
21662;DHT22;10992;48.170;8.596;2024-03-22T14:16:41;21.90;93.40
21662;DHT22;10992;48.170;8.596;2024-03-22T14:19:10;21.90;94.10
21662;DHT22;10992;48.170;8.596;2024-03-22T14:21:36;22.00;92.30
21662;DHT22;10992;48.170;8.596;2024-03-22T14:24:04;21.20;90.90
21662;DHT22;10992;48.170;8.596;2024-03-22T14:26:30;21.10;92.20
21662;DHT22;10992;48.170;8.596;2024-03-22T14:28:56;20.30;93.90
21662;DHT22;10992;48.170;8.596;2024-03-22T14:31:22;20.50;96.60
21662;DHT22;10992;48.170;8.596;2024-03-22T14:33:48;20.40;93.20
21662;DHT22;10992;48.170;8.596;2024-03-22T14:36:14;20.30;93.70
21662;DHT22;10992;48.170;8.596;2024-03-22T14:38:40;20.20;93.70
21662;DHT22;10992;48.170;8.596;2024-03-22T14:41:06;20.30;93.60
21662;DHT22;10992;48.170;8.596;2024-03-22T14:43:32;20.30;94.10
21662;DHT22;10992;48.170;8.596;2024-03-22T14:46:01;20.20;93.60
21662;DHT22;10992;48.170;8.596;2024-03-22T14:48:30;19.80;90.50
21662;DHT22;10992;48.170;8.596;2024-03-22T14:50:56;19.60;90.90
21662;DHT22;10992;48.170;8.596;2024-03-22T14:53:22;19.70;91.70
21662;DHT22;10992;48.170;8.596;2024-03-22T14:56:06;19.70;87.60
21662;DHT22;10992;48.170;8.596;2024-03-22T14:58:35;19.70;84.80
21662;DHT22;10992;48.170;8.596;2024-03-22T15:01:02;19.50;85.60
21662;DHT22;10992;48.170;8.596;2024-03-22T15:03:28;19.40;88.50
21662;DHT22;10992;48.170;8.596;2024-03-22T15:05:55;19.50;89.20
21662;DHT22;10992;48.170;8.596;2024-03-22T15:08:22;19.50;89.50
21662;DHT22;10992;48.170;8.596;2024-03-22T15:10:48;19.50;88.80
21662;DHT22;10992;48.170;8.596;2024-03-22T15:13:15;19.50;90.20
21662;DHT22;10992;48.170;8.596;2024-03-22T15:15:41;19.90;90.70
21662;DHT22;10992;48.170;8.596;2024-03-22T15:18:08;20.10;89.30
21662;DHT22;10992;48.170;8.596;2024-03-22T15:20:35;19.80;88.10
21662;DHT22;10992;48.170;8.596;2024-03-22T15:23:01;19.80;88.40
21662;DHT22;10992;48.170;8.596;2024-03-22T15:25:27;19.50;88.70
21662;DHT22;10992;48.170;8.596;2024-03-22T15:27:53;19.50;88.60
21662;DHT22;10992;48.170;8.596;2024-03-22T15:30:19;19.30;88.60
21662;DHT22;10992;48.170;8.596;2024-03-22T15:32:45;19.20;90.20